sensor_id;sensor_type;location;lat;lon;timestamp;P1;durP1;ratioP1;P2;durP2;ratioP2
30948;SDS011;17637;51.984;21.208;2022-09-03T00:00:59;7.20;;;4.83;;
30948;SDS011;17637;51.984;21.208;2022-09-03T00:03:32;8.25;;;4.65;;
30948;SDS011;17637;51.984;21.208;2022-09-03T00:06:08;8.68;;;4.72;;
30948;SDS011;17637;51.984;21.208;2022-09-03T00:08:51;11.90;;;7.28;;
30948;SDS011;17637;51.984;21.208;2022-09-03T00:14:20;9.40;;;5.47;;
30948;SDS011;17637;51.984;21.208;2022-09-03T00:19:40;7.85;;;5.75;;
30948;SDS011;17637;51.984;21.208;2022-09-03T00:22:32;9.93;;;5.85;;
30948;SDS011;17637;51.984;21.208;2022-09-03T00:25:02;9.85;;;5.85;;
30948;SDS011;17637;51.984;21.208;2022-09-03T00:27:29;13.43;;;6.15;;
30948;SDS011;17637;51.984;21.208;2022-09-03T00:30:17;10.65;;;6.38;;
30948;SDS011;17637;51.984;21.208;2022-09-03T00:35:16;12.02;;;6.88;;
30948;SDS011;17637;51.984;21.208;2022-09-03T00:37:45;11.07;;;6.43;;
30948;SDS011;17637;51.984;21.208;2022-09-03T00:40:18;10.82;;;6.30;;
30948;SDS011;17637;51.984;21.208;2022-09-03T00:48:25;9.90;;;6.03;;
30948;SDS011;17637;51.984;21.208;2022-09-03T00:53:34;9.95;;;6.07;;
30948;SDS011;17637;51.984;21.208;2022-09-03T00:56:25;9.30;;;6.10;;
30948;SDS011;17637;51.984;21.208;2022-09-03T01:02:00;12.73;;;6.78;;
30948;SDS011;17637;51.984;21.208;2022-09-03T01:13:16;11.02;;;6.65;;
30948;SDS011;17637;51.984;21.208;2022-09-03T01:15:51;12.85;;;6.55;;
30948;SDS011;17637;51.984;21.208;2022-09-03T01:18:24;9.57;;;6.25;;
30948;SDS011;17637;51.984;21.208;2022-09-03T01:21:07;11.82;;;6.68;;
30948;SDS011;17637;51.984;21.208;2022-09-03T01:31:49;8.48;;;5.75;;
30948;SDS011;17637;51.984;21.208;2022-09-03T01:52:55;12.25;;;6.63;;
30948;SDS011;17637;51.984;21.208;2022-09-03T01:58:11;10.45;;;7.38;;
30948;SDS011;17637;51.984;21.208;2022-09-03T02:00:40;10.57;;;7.10;;
30948;SDS011;17637;51.984;21.208;2022-09-03T02:03:07;11.77;;;6.75;;
30948;SDS011;17637;51.984;21.208;2022-09-03T02:05:34;10.80;;;7.10;;
30948;SDS011;17637;51.984;21.208;2022-09-03T02:08:07;12.15;;;7.78;;
30948;SDS011;17637;51.984;21.208;2022-09-03T02:10:46;10.65;;;6.55;;
30948;SDS011;17637;51.984;21.208;2022-09-03T02:13:17;13.57;;;7.57;;
30948;SDS011;17637;51.984;21.208;2022-09-03T02:15:45;9.20;;;6.85;;
30948;SDS011;17637;51.984;21.208;2022-09-03T02:18:18;10.52;;;6.68;;
30948;SDS011;17637;51.984;21.208;2022-09-03T02:20:45;12.45;;;6.80;;
30948;SDS011;17637;51.984;21.208;2022-09-03T02:23:12;19.83;;;6.60;;
30948;SDS011;17637;51.984;21.208;2022-09-03T02:25:40;11.52;;;7.47;;
30948;SDS011;17637;51.984;21.208;2022-09-03T02:28:08;11.77;;;7.65;;
30948;SDS011;17637;51.984;21.208;2022-09-03T02:30:34;14.50;;;7.65;;
30948;SDS011;17637;51.984;21.208;2022-09-03T02:33:00;13.25;;;7.32;;
30948;SDS011;17637;51.984;21.208;2022-09-03T02:35:26;10.95;;;6.70;;
30948;SDS011;17637;51.984;21.208;2022-09-03T02:37:51;11.32;;;6.97;;
30948;SDS011;17637;51.984;21.208;2022-09-03T02:40:17;11.82;;;6.80;;
30948;SDS011;17637;51.984;21.208;2022-09-03T02:42:43;12.00;;;6.78;;
30948;SDS011;17637;51.984;21.208;2022-09-03T02:47:52;11.98;;;7.95;;
30948;SDS011;17637;51.984;21.208;2022-09-03T02:50:20;13.25;;;7.97;;
30948;SDS011;17637;51.984;21.208;2022-09-03T02:52:45;12.23;;;7.60;;
30948;SDS011;17637;51.984;21.208;2022-09-03T02:55:11;9.75;;;6.72;;
30948;SDS011;17637;51.984;21.208;2022-09-03T02:57:36;15.98;;;8.50;;
30948;SDS011;17637;51.984;21.208;2022-09-03T03:00:02;13.93;;;8.38;;
30948;SDS011;17637;51.984;21.208;2022-09-03T03:02:28;13.60;;;8.05;;
30948;SDS011;17637;51.984;21.208;2022-09-03T03:04:54;14.30;;;7.88;;
30948;SDS011;17637;51.984;21.208;2022-09-03T03:07:19;15.85;;;9.35;;
30948;SDS011;17637;51.984;21.208;2022-09-03T03:09:45;16.50;;;7.80;;
30948;SDS011;17637;51.984;21.208;2022-09-03T03:12:11;12.07;;;6.22;;
30948;SDS011;17637;51.984;21.208;2022-09-03T03:14:36;10.02;;;6.38;;
30948;SDS011;17637;51.984;21.208;2022-09-03T03:17:02;10.95;;;5.63;;
30948;SDS011;17637;51.984;21.208;2022-09-03T03:19:27;11.27;;;6.55;;
30948;SDS011;17637;51.984;21.208;2022-09-03T03:21:53;10.57;;;6.80;;
30948;SDS011;17637;51.984;21.208;2022-09-03T03:24:18;13.20;;;7.70;;
30948;SDS011;17637;51.984;21.208;2022-09-03T03:26:44;19.27;;;8.68;;
30948;SDS011;17637;51.984;21.208;2022-09-03T03:29:13;18.10;;;7.70;;
30948;SDS011;17637;51.984;21.208;2022-09-03T03:31:41;13.05;;;7.38;;
30948;SDS011;17637;51.984;21.208;2022-09-03T03:34:07;12.63;;;7.05;;
30948;SDS011;17637;51.984;21.208;2022-09-03T03:36:32;15.77;;;7.57;;
30948;SDS011;17637;51.984;21.208;2022-09-03T03:38:58;11.50;;;6.30;;
30948;SDS011;17637;51.984;21.208;2022-09-03T03:41:26;12.98;;;6.63;;
30948;SDS011;17637;51.984;21.208;2022-09-03T03:43:58;11.38;;;5.88;;
30948;SDS011;17637;51.984;21.208;2022-09-03T03:46:28;9.50;;;6.28;;
30948;SDS011;17637;51.984;21.208;2022-09-03T03:48:55;9.57;;;5.90;;
30948;SDS011;17637;51.984;21.208;2022-09-03T03:51:20;12.90;;;6.10;;
30948;SDS011;17637;51.984;21.208;2022-09-03T03:53:46;11.15;;;6.25;;
30948;SDS011;17637;51.984;21.208;2022-09-03T03:56:13;13.13;;;6.45;;
30948;SDS011;17637;51.984;21.208;2022-09-03T03:58:41;9.55;;;5.60;;
30948;SDS011;17637;51.984;21.208;2022-09-03T04:01:09;13.00;;;6.35;;
30948;SDS011;17637;51.984;21.208;2022-09-03T04:03:37;12.30;;;6.40;;
30948;SDS011;17637;51.984;21.208;2022-09-03T04:06:03;13.98;;;6.97;;
30948;SDS011;17637;51.984;21.208;2022-09-03T04:08:29;11.25;;;5.63;;
30948;SDS011;17637;51.984;21.208;2022-09-03T04:10:59;10.30;;;6.20;;
30948;SDS011;17637;51.984;21.208;2022-09-03T04:13:29;9.57;;;5.20;;
30948;SDS011;17637;51.984;21.208;2022-09-03T04:18:27;10.45;;;6.22;;
30948;SDS011;17637;51.984;21.208;2022-09-03T04:20:57;12.25;;;6.30;;
30948;SDS011;17637;51.984;21.208;2022-09-03T04:23:23;10.35;;;5.57;;
30948;SDS011;17637;51.984;21.208;2022-09-03T04:25:52;10.38;;;5.45;;
30948;SDS011;17637;51.984;21.208;2022-09-03T04:28:18;11.55;;;6.22;;
30948;SDS011;17637;51.984;21.208;2022-09-03T04:30:43;15.73;;;5.95;;
30948;SDS011;17637;51.984;21.208;2022-09-03T04:33:09;10.02;;;5.70;;
30948;SDS011;17637;51.984;21.208;2022-09-03T04:35:34;10.40;;;5.38;;
30948;SDS011;17637;51.984;21.208;2022-09-03T04:37:59;14.30;;;6.00;;
30948;SDS011;17637;51.984;21.208;2022-09-03T04:40:25;8.30;;;5.45;;
30948;SDS011;17637;51.984;21.208;2022-09-03T04:42:55;8.40;;;5.38;;
30948;SDS011;17637;51.984;21.208;2022-09-03T04:45:21;12.30;;;5.63;;
30948;SDS011;17637;51.984;21.208;2022-09-03T04:47:56;9.57;;;5.88;;
30948;SDS011;17637;51.984;21.208;2022-09-03T04:50:22;7.80;;;5.47;;
30948;SDS011;17637;51.984;21.208;2022-09-03T04:52:47;7.63;;;5.15;;
30948;SDS011;17637;51.984;21.208;2022-09-03T04:55:13;9.65;;;5.93;;
30948;SDS011;17637;51.984;21.208;2022-09-03T04:57:39;8.65;;;4.80;;
30948;SDS011;17637;51.984;21.208;2022-09-03T05:00:07;9.63;;;5.35;;
30948;SDS011;17637;51.984;21.208;2022-09-03T05:02:35;8.70;;;5.18;;
30948;SDS011;17637;51.984;21.208;2022-09-03T05:05:01;10.25;;;5.53;;
30948;SDS011;17637;51.984;21.208;2022-09-03T05:07:30;11.65;;;5.00;;
30948;SDS011;17637;51.984;21.208;2022-09-03T05:10:04;9.15;;;5.30;;
30948;SDS011;17637;51.984;21.208;2022-09-03T05:12:33;8.45;;;4.97;;
30948;SDS011;17637;51.984;21.208;2022-09-03T05:14:59;10.15;;;5.55;;
30948;SDS011;17637;51.984;21.208;2022-09-03T05:17:28;10.15;;;5.60;;
30948;SDS011;17637;51.984;21.208;2022-09-03T05:19:53;7.70;;;4.88;;
30948;SDS011;17637;51.984;21.208;2022-09-03T05:22:19;8.23;;;5.63;;
30948;SDS011;17637;51.984;21.208;2022-09-03T05:24:45;11.50;;;5.35;;
30948;SDS011;17637;51.984;21.208;2022-09-03T05:27:12;11.68;;;5.60;;
30948;SDS011;17637;51.984;21.208;2022-09-03T05:29:41;9.52;;;5.40;;
30948;SDS011;17637;51.984;21.208;2022-09-03T05:32:07;9.02;;;5.28;;
30948;SDS011;17637;51.984;21.208;2022-09-03T05:34:33;9.07;;;4.57;;
30948;SDS011;17637;51.984;21.208;2022-09-03T05:36:58;11.77;;;5.03;;
30948;SDS011;17637;51.984;21.208;2022-09-03T05:39:24;8.68;;;4.95;;
30948;SDS011;17637;51.984;21.208;2022-09-03T05:41:50;7.63;;;4.40;;
30948;SDS011;17637;51.984;21.208;2022-09-03T05:44:16;10.00;;;5.53;;
30948;SDS011;17637;51.984;21.208;2022-09-03T05:46:42;9.63;;;5.13;;
30948;SDS011;17637;51.984;21.208;2022-09-03T05:49:07;8.32;;;4.65;;
30948;SDS011;17637;51.984;21.208;2022-09-03T05:51:38;7.20;;;4.60;;
30948;SDS011;17637;51.984;21.208;2022-09-03T05:54:04;8.18;;;4.88;;
30948;SDS011;17637;51.984;21.208;2022-09-03T05:56:30;7.47;;;4.22;;
30948;SDS011;17637;51.984;21.208;2022-09-03T05:58:58;8.07;;;3.40;;
30948;SDS011;17637;51.984;21.208;2022-09-03T06:01:26;5.90;;;3.85;;
30948;SDS011;17637;51.984;21.208;2022-09-03T06:03:54;9.38;;;3.88;;
30948;SDS011;17637;51.984;21.208;2022-09-03T06:06:24;7.28;;;3.33;;
30948;SDS011;17637;51.984;21.208;2022-09-03T06:08:50;5.32;;;2.75;;
30948;SDS011;17637;51.984;21.208;2022-09-03T06:11:20;6.28;;;3.40;;
30948;SDS011;17637;51.984;21.208;2022-09-03T06:13:47;6.10;;;3.90;;
30948;SDS011;17637;51.984;21.208;2022-09-03T06:16:13;6.53;;;3.70;;
30948;SDS011;17637;51.984;21.208;2022-09-03T06:18:38;9.40;;;3.75;;
30948;SDS011;17637;51.984;21.208;2022-09-03T06:21:04;6.03;;;3.50;;
30948;SDS011;17637;51.984;21.208;2022-09-03T06:23:31;10.20;;;3.53;;
30948;SDS011;17637;51.984;21.208;2022-09-03T06:28:33;7.40;;;3.33;;
30948;SDS011;17637;51.984;21.208;2022-09-03T06:31:00;7.18;;;3.63;;
30948;SDS011;17637;51.984;21.208;2022-09-03T06:33:27;8.07;;;4.00;;
30948;SDS011;17637;51.984;21.208;2022-09-03T06:35:55;8.30;;;3.83;;
30948;SDS011;17637;51.984;21.208;2022-09-03T06:38:25;5.90;;;3.10;;
30948;SDS011;17637;51.984;21.208;2022-09-03T06:40:52;7.43;;;3.25;;
30948;SDS011;17637;51.984;21.208;2022-09-03T06:43:18;5.05;;;2.97;;
30948;SDS011;17637;51.984;21.208;2022-09-03T06:45:51;9.82;;;3.60;;
30948;SDS011;17637;51.984;21.208;2022-09-03T06:48:18;8.48;;;3.20;;
30948;SDS011;17637;51.984;21.208;2022-09-03T06:50:51;5.80;;;3.28;;
30948;SDS011;17637;51.984;21.208;2022-09-03T06:53:18;10.73;;;3.55;;
30948;SDS011;17637;51.984;21.208;2022-09-03T06:55:51;6.00;;;2.80;;
30948;SDS011;17637;51.984;21.208;2022-09-03T06:58:24;8.02;;;3.25;;
30948;SDS011;17637;51.984;21.208;2022-09-03T07:00:52;4.65;;;3.15;;
30948;SDS011;17637;51.984;21.208;2022-09-03T07:03:18;8.82;;;3.42;;
30948;SDS011;17637;51.984;21.208;2022-09-03T07:05:45;8.10;;;3.50;;
30948;SDS011;17637;51.984;21.208;2022-09-03T07:08:11;10.32;;;3.95;;
30948;SDS011;17637;51.984;21.208;2022-09-03T07:10:36;6.85;;;3.42;;
30948;SDS011;17637;51.984;21.208;2022-09-03T07:13:02;9.18;;;3.92;;
30948;SDS011;17637;51.984;21.208;2022-09-03T07:15:31;7.85;;;3.22;;
30948;SDS011;17637;51.984;21.208;2022-09-03T07:17:57;6.32;;;2.97;;
30948;SDS011;17637;51.984;21.208;2022-09-03T07:20:23;7.60;;;3.30;;
30948;SDS011;17637;51.984;21.208;2022-09-03T07:22:48;6.53;;;3.00;;
30948;SDS011;17637;51.984;21.208;2022-09-03T07:25:14;7.97;;;3.00;;
30948;SDS011;17637;51.984;21.208;2022-09-03T07:27:39;6.82;;;3.30;;
30948;SDS011;17637;51.984;21.208;2022-09-03T07:30:05;7.97;;;2.63;;
30948;SDS011;17637;51.984;21.208;2022-09-03T07:32:33;3.80;;;2.50;;
30948;SDS011;17637;51.984;21.208;2022-09-03T07:35:01;4.50;;;2.45;;
30948;SDS011;17637;51.984;21.208;2022-09-03T07:37:27;9.93;;;2.80;;
30948;SDS011;17637;51.984;21.208;2022-09-03T07:39:52;8.35;;;2.63;;
30948;SDS011;17637;51.984;21.208;2022-09-03T07:42:18;4.97;;;2.90;;
30948;SDS011;17637;51.984;21.208;2022-09-03T07:44:45;3.63;;;2.50;;
30948;SDS011;17637;51.984;21.208;2022-09-03T07:47:10;6.95;;;2.78;;
30948;SDS011;17637;51.984;21.208;2022-09-03T07:49:37;4.70;;;2.50;;
30948;SDS011;17637;51.984;21.208;2022-09-03T07:52:02;7.43;;;3.10;;
30948;SDS011;17637;51.984;21.208;2022-09-03T07:54:28;8.57;;;2.75;;
30948;SDS011;17637;51.984;21.208;2022-09-03T07:56:54;8.45;;;2.80;;
30948;SDS011;17637;51.984;21.208;2022-09-03T07:59:19;5.40;;;2.00;;
30948;SDS011;17637;51.984;21.208;2022-09-03T08:01:46;4.90;;;2.00;;
30948;SDS011;17637;51.984;21.208;2022-09-03T08:04:12;3.80;;;1.98;;
30948;SDS011;17637;51.984;21.208;2022-09-03T08:06:38;6.10;;;2.08;;
30948;SDS011;17637;51.984;21.208;2022-09-03T08:09:08;7.05;;;2.20;;
30948;SDS011;17637;51.984;21.208;2022-09-03T08:11:36;3.30;;;2.17;;
30948;SDS011;17637;51.984;21.208;2022-09-03T08:14:03;5.13;;;1.85;;
30948;SDS011;17637;51.984;21.208;2022-09-03T08:16:34;5.70;;;2.30;;
30948;SDS011;17637;51.984;21.208;2022-09-03T08:19:04;4.10;;;2.20;;
30948;SDS011;17637;51.984;21.208;2022-09-03T08:21:30;5.05;;;1.30;;
30948;SDS011;17637;51.984;21.208;2022-09-03T08:23:56;2.53;;;1.27;;
30948;SDS011;17637;51.984;21.208;2022-09-03T08:26:38;1.48;;;0.90;;
30948;SDS011;17637;51.984;21.208;2022-09-03T08:29:05;2.40;;;1.08;;
30948;SDS011;17637;51.984;21.208;2022-09-03T08:31:31;2.05;;;1.13;;
30948;SDS011;17637;51.984;21.208;2022-09-03T08:33:58;2.75;;;1.00;;
30948;SDS011;17637;51.984;21.208;2022-09-03T08:36:28;3.05;;;1.25;;
30948;SDS011;17637;51.984;21.208;2022-09-03T08:38:55;3.05;;;1.08;;
30948;SDS011;17637;51.984;21.208;2022-09-03T08:49:52;4.93;;;1.20;;
30948;SDS011;17637;51.984;21.208;2022-09-03T08:52:56;2.85;;;1.00;;
30948;SDS011;17637;51.984;21.208;2022-09-03T08:55:36;3.72;;;1.17;;
30948;SDS011;17637;51.984;21.208;2022-09-03T08:58:10;1.40;;;1.10;;
30948;SDS011;17637;51.984;21.208;2022-09-03T09:06:35;1.92;;;1.10;;
30948;SDS011;17637;51.984;21.208;2022-09-03T09:09:23;3.97;;;1.27;;
30948;SDS011;17637;51.984;21.208;2022-09-03T09:17:48;2.75;;;1.40;;
30948;SDS011;17637;51.984;21.208;2022-09-03T09:21:06;3.33;;;1.08;;
30948;SDS011;17637;51.984;21.208;2022-09-03T09:26:16;2.95;;;1.58;;
30948;SDS011;17637;51.984;21.208;2022-09-03T09:28:47;7.70;;;1.20;;
30948;SDS011;17637;51.984;21.208;2022-09-03T09:31:18;2.15;;;1.10;;
30948;SDS011;17637;51.984;21.208;2022-09-03T09:33:44;4.03;;;1.10;;
30948;SDS011;17637;51.984;21.208;2022-09-03T09:36:11;2.17;;;1.30;;
30948;SDS011;17637;51.984;21.208;2022-09-03T09:38:40;3.00;;;1.10;;
30948;SDS011;17637;51.984;21.208;2022-09-03T09:41:16;2.65;;;1.05;;
30948;SDS011;17637;51.984;21.208;2022-09-03T09:43:44;3.10;;;1.40;;
30948;SDS011;17637;51.984;21.208;2022-09-03T09:46:22;4.40;;;1.60;;
30948;SDS011;17637;51.984;21.208;2022-09-03T09:48:53;4.18;;;1.20;;
30948;SDS011;17637;51.984;21.208;2022-09-03T09:51:22;5.65;;;1.20;;
30948;SDS011;17637;51.984;21.208;2022-09-03T09:53:58;3.00;;;1.02;;
30948;SDS011;17637;51.984;21.208;2022-09-03T09:56:28;2.17;;;1.20;;
30948;SDS011;17637;51.984;21.208;2022-09-03T09:59:04;2.72;;;1.10;;
30948;SDS011;17637;51.984;21.208;2022-09-03T10:01:32;2.60;;;0.90;;
30948;SDS011;17637;51.984;21.208;2022-09-03T10:03:59;1.48;;;1.02;;
30948;SDS011;17637;51.984;21.208;2022-09-03T10:06:32;1.92;;;1.30;;
30948;SDS011;17637;51.984;21.208;2022-09-03T10:09:19;3.80;;;1.00;;
30948;SDS011;17637;51.984;21.208;2022-09-03T10:17:25;2.70;;;1.20;;
30948;SDS011;17637;51.984;21.208;2022-09-03T10:22:59;3.95;;;1.20;;
30948;SDS011;17637;51.984;21.208;2022-09-03T10:28:16;2.08;;;1.25;;
30948;SDS011;17637;51.984;21.208;2022-09-03T10:31:02;1.83;;;1.08;;
30948;SDS011;17637;51.984;21.208;2022-09-03T10:33:57;2.22;;;1.20;;
30948;SDS011;17637;51.984;21.208;2022-09-03T10:36:37;2.40;;;0.98;;
30948;SDS011;17637;51.984;21.208;2022-09-03T10:41:54;3.45;;;1.08;;
30948;SDS011;17637;51.984;21.208;2022-09-03T10:47:06;2.67;;;0.80;;
30948;SDS011;17637;51.984;21.208;2022-09-03T11:11:41;2.60;;;1.00;;
30948;SDS011;17637;51.984;21.208;2022-09-03T11:14:15;5.18;;;1.42;;
30948;SDS011;17637;51.984;21.208;2022-09-03T11:16:53;1.90;;;1.17;;
30948;SDS011;17637;51.984;21.208;2022-09-03T11:19:28;2.55;;;0.90;;
30948;SDS011;17637;51.984;21.208;2022-09-03T11:22:00;3.17;;;1.10;;
30948;SDS011;17637;51.984;21.208;2022-09-03T11:24:27;4.05;;;1.30;;
30948;SDS011;17637;51.984;21.208;2022-09-03T11:27:23;1.58;;;1.27;;
30948;SDS011;17637;51.984;21.208;2022-09-03T11:30:14;3.95;;;1.20;;
30948;SDS011;17637;51.984;21.208;2022-09-03T11:32:52;1.60;;;0.90;;
30948;SDS011;17637;51.984;21.208;2022-09-03T11:38:02;1.42;;;0.90;;
30948;SDS011;17637;51.984;21.208;2022-09-03T11:43:35;3.42;;;1.13;;
30948;SDS011;17637;51.984;21.208;2022-09-03T11:46:28;5.10;;;0.90;;
30948;SDS011;17637;51.984;21.208;2022-09-03T11:48:47;2.60;;;1.25;;
30948;SDS011;17637;51.984;21.208;2022-09-03T11:51:20;3.13;;;1.23;;
30948;SDS011;17637;51.984;21.208;2022-09-03T11:56:30;4.55;;;1.20;;
30948;SDS011;17637;51.984;21.208;2022-09-03T12:01:46;1.35;;;0.88;;
30948;SDS011;17637;51.984;21.208;2022-09-03T12:04:24;2.10;;;1.30;;
30948;SDS011;17637;51.984;21.208;2022-09-03T12:07:17;2.88;;;0.93;;
30948;SDS011;17637;51.984;21.208;2022-09-03T12:26:17;3.45;;;1.10;;
30948;SDS011;17637;51.984;21.208;2022-09-03T12:28:51;1.85;;;0.95;;
30948;SDS011;17637;51.984;21.208;2022-09-03T12:31:24;1.73;;;1.27;;
30948;SDS011;17637;51.984;21.208;2022-09-03T12:33:54;3.15;;;1.20;;
30948;SDS011;17637;51.984;21.208;2022-09-03T12:36:23;3.70;;;0.88;;
30948;SDS011;17637;51.984;21.208;2022-09-03T12:38:49;3.63;;;1.10;;
30948;SDS011;17637;51.984;21.208;2022-09-03T12:41:23;4.55;;;1.25;;
30948;SDS011;17637;51.984;21.208;2022-09-03T12:43:52;1.42;;;1.10;;
30948;SDS011;17637;51.984;21.208;2022-09-03T12:46:31;5.43;;;1.08;;
30948;SDS011;17637;51.984;21.208;2022-09-03T12:48:58;2.75;;;1.00;;
30948;SDS011;17637;51.984;21.208;2022-09-03T12:51:38;3.83;;;1.30;;
30948;SDS011;17637;51.984;21.208;2022-09-03T12:54:05;2.05;;;1.10;;
30948;SDS011;17637;51.984;21.208;2022-09-03T12:56:37;3.10;;;1.30;;
30948;SDS011;17637;51.984;21.208;2022-09-03T12:59:05;1.42;;;1.02;;
30948;SDS011;17637;51.984;21.208;2022-09-03T13:01:42;4.07;;;1.13;;
30948;SDS011;17637;51.984;21.208;2022-09-03T13:04:17;3.60;;;1.02;;
30948;SDS011;17637;51.984;21.208;2022-09-03T13:06:54;2.13;;;1.40;;
30948;SDS011;17637;51.984;21.208;2022-09-03T13:09:25;5.50;;;1.67;;
30948;SDS011;17637;51.984;21.208;2022-09-03T13:11:53;3.90;;;1.15;;
30948;SDS011;17637;51.984;21.208;2022-09-03T13:14:20;4.00;;;1.27;;
30948;SDS011;17637;51.984;21.208;2022-09-03T13:24:43;2.20;;;1.17;;
30948;SDS011;17637;51.984;21.208;2022-09-03T13:27:32;3.05;;;1.38;;
30948;SDS011;17637;51.984;21.208;2022-09-03T13:30:18;4.15;;;1.30;;
30948;SDS011;17637;51.984;21.208;2022-09-03T13:42:57;2.88;;;1.27;;
30948;SDS011;17637;51.984;21.208;2022-09-03T13:45:49;3.50;;;1.77;;
30948;SDS011;17637;51.984;21.208;2022-09-03T13:48:23;2.13;;;1.48;;
30948;SDS011;17637;51.984;21.208;2022-09-03T13:51:19;5.22;;;1.65;;
30948;SDS011;17637;51.984;21.208;2022-09-03T13:54:02;4.82;;;1.90;;
30948;SDS011;17637;51.984;21.208;2022-09-03T13:56:56;3.65;;;1.60;;
30948;SDS011;17637;51.984;21.208;2022-09-03T14:02:32;4.97;;;1.77;;
30948;SDS011;17637;51.984;21.208;2022-09-03T14:05:22;5.88;;;1.58;;
30948;SDS011;17637;51.984;21.208;2022-09-03T14:18:57;3.30;;;2.28;;
30948;SDS011;17637;51.984;21.208;2022-09-03T14:26:32;3.72;;;2.08;;
30948;SDS011;17637;51.984;21.208;2022-09-03T14:40:13;4.28;;;1.90;;
30948;SDS011;17637;51.984;21.208;2022-09-03T14:43:02;3.92;;;2.00;;
30948;SDS011;17637;51.984;21.208;2022-09-03T14:48:21;4.80;;;1.90;;
30948;SDS011;17637;51.984;21.208;2022-09-03T14:59:41;3.95;;;2.72;;
30948;SDS011;17637;51.984;21.208;2022-09-03T15:02:30;3.60;;;2.13;;
30948;SDS011;17637;51.984;21.208;2022-09-03T15:05:08;5.85;;;2.72;;
30948;SDS011;17637;51.984;21.208;2022-09-03T15:12:54;4.50;;;1.70;;
30948;SDS011;17637;51.984;21.208;2022-09-03T15:15:25;4.25;;;1.90;;
30948;SDS011;17637;51.984;21.208;2022-09-03T15:18:02;3.63;;;1.85;;
30948;SDS011;17637;51.984;21.208;2022-09-03T15:23:22;4.40;;;2.15;;
30948;SDS011;17637;51.984;21.208;2022-09-03T15:36:41;5.22;;;2.38;;
30948;SDS011;17637;51.984;21.208;2022-09-03T15:39:19;4.80;;;1.95;;
30948;SDS011;17637;51.984;21.208;2022-09-03T15:44:40;3.70;;;1.90;;
30948;SDS011;17637;51.984;21.208;2022-09-03T15:47:27;2.55;;;1.88;;
30948;SDS011;17637;51.984;21.208;2022-09-03T16:00:37;2.25;;;1.70;;
30948;SDS011;17637;51.984;21.208;2022-09-03T16:03:14;3.92;;;1.80;;
30948;SDS011;17637;51.984;21.208;2022-09-03T16:08:42;3.10;;;1.80;;
30948;SDS011;17637;51.984;21.208;2022-09-03T16:16:25;3.65;;;2.00;;
30948;SDS011;17637;51.984;21.208;2022-09-03T16:19:16;21.13;;;12.65;;
30948;SDS011;17637;51.984;21.208;2022-09-03T16:24:37;25.35;;;13.63;;
30948;SDS011;17637;51.984;21.208;2022-09-03T16:27:27;17.25;;;9.70;;
30948;SDS011;17637;51.984;21.208;2022-09-03T16:32:32;37.47;;;24.90;;
30948;SDS011;17637;51.984;21.208;2022-09-03T16:35:10;26.00;;;16.77;;
30948;SDS011;17637;51.984;21.208;2022-09-03T16:38:05;58.25;;;36.70;;
30948;SDS011;17637;51.984;21.208;2022-09-03T16:40:56;57.90;;;37.15;;
30948;SDS011;17637;51.984;21.208;2022-09-03T16:46:44;27.55;;;16.35;;
30948;SDS011;17637;51.984;21.208;2022-09-03T16:49:24;23.35;;;15.18;;
30948;SDS011;17637;51.984;21.208;2022-09-03T17:00:20;10.30;;;5.65;;
30948;SDS011;17637;51.984;21.208;2022-09-03T17:08:43;6.15;;;2.88;;
30948;SDS011;17637;51.984;21.208;2022-09-03T17:24:57;7.53;;;2.90;;
30948;SDS011;17637;51.984;21.208;2022-09-03T17:33:02;7.28;;;2.63;;
30948;SDS011;17637;51.984;21.208;2022-09-03T17:35:51;7.60;;;2.75;;
30948;SDS011;17637;51.984;21.208;2022-09-03T17:40:55;5.82;;;2.00;;
30948;SDS011;17637;51.984;21.208;2022-09-03T17:49:40;4.10;;;2.65;;
30948;SDS011;17637;51.984;21.208;2022-09-03T17:57:50;7.80;;;3.95;;
30948;SDS011;17637;51.984;21.208;2022-09-03T18:00:23;9.90;;;4.68;;
30948;SDS011;17637;51.984;21.208;2022-09-03T18:05:18;11.25;;;4.55;;
30948;SDS011;17637;51.984;21.208;2022-09-03T18:08:01;10.32;;;4.95;;
30948;SDS011;17637;51.984;21.208;2022-09-03T18:18:50;15.23;;;6.50;;
30948;SDS011;17637;51.984;21.208;2022-09-03T18:21:20;13.05;;;7.03;;
30948;SDS011;17637;51.984;21.208;2022-09-03T18:27:00;16.00;;;7.28;;
30948;SDS011;17637;51.984;21.208;2022-09-03T18:30:10;17.75;;;8.88;;
30948;SDS011;17637;51.984;21.208;2022-09-03T18:32:55;15.82;;;8.48;;
30948;SDS011;17637;51.984;21.208;2022-09-03T18:35:41;12.05;;;7.32;;
30948;SDS011;17637;51.984;21.208;2022-09-03T18:38:28;15.73;;;8.10;;
30948;SDS011;17637;51.984;21.208;2022-09-03T18:53:50;13.60;;;6.93;;
30948;SDS011;17637;51.984;21.208;2022-09-03T18:56:55;11.55;;;6.20;;
30948;SDS011;17637;51.984;21.208;2022-09-03T19:06:00;12.55;;;6.70;;
30948;SDS011;17637;51.984;21.208;2022-09-03T19:09:32;10.85;;;6.07;;
30948;SDS011;17637;51.984;21.208;2022-09-03T19:12:10;10.97;;;5.67;;
30948;SDS011;17637;51.984;21.208;2022-09-03T19:15:19;8.95;;;5.60;;
30948;SDS011;17637;51.984;21.208;2022-09-03T19:24:20;11.45;;;6.25;;
30948;SDS011;17637;51.984;21.208;2022-09-03T19:27:08;12.75;;;6.93;;
30948;SDS011;17637;51.984;21.208;2022-09-03T19:30:10;12.38;;;7.53;;
30948;SDS011;17637;51.984;21.208;2022-09-03T19:33:12;13.18;;;7.88;;
30948;SDS011;17637;51.984;21.208;2022-09-03T19:45:12;11.95;;;6.47;;
30948;SDS011;17637;51.984;21.208;2022-09-03T19:48:18;10.23;;;5.82;;
30948;SDS011;17637;51.984;21.208;2022-09-03T19:51:40;11.30;;;5.93;;
30948;SDS011;17637;51.984;21.208;2022-09-03T19:54:32;9.68;;;6.05;;
30948;SDS011;17637;51.984;21.208;2022-09-03T19:57:17;9.73;;;5.63;;
30948;SDS011;17637;51.984;21.208;2022-09-03T20:00:03;13.77;;;6.25;;
30948;SDS011;17637;51.984;21.208;2022-09-03T20:02:48;12.45;;;5.90;;
30948;SDS011;17637;51.984;21.208;2022-09-03T20:05:32;8.98;;;5.82;;
30948;SDS011;17637;51.984;21.208;2022-09-03T20:08:18;11.57;;;5.55;;
30948;SDS011;17637;51.984;21.208;2022-09-03T20:11:02;9.95;;;5.68;;
30948;SDS011;17637;51.984;21.208;2022-09-03T20:13:28;12.18;;;5.90;;
30948;SDS011;17637;51.984;21.208;2022-09-03T20:16:57;9.07;;;5.80;;
30948;SDS011;17637;51.984;21.208;2022-09-03T20:19:03;10.68;;;5.90;;
30948;SDS011;17637;51.984;21.208;2022-09-03T20:21:38;9.43;;;5.53;;
30948;SDS011;17637;51.984;21.208;2022-09-03T20:30:03;10.35;;;5.53;;
30948;SDS011;17637;51.984;21.208;2022-09-03T20:35:36;13.20;;;6.40;;
30948;SDS011;17637;51.984;21.208;2022-09-03T20:38:48;13.45;;;6.30;;
30948;SDS011;17637;51.984;21.208;2022-09-03T20:49:49;10.52;;;6.57;;
30948;SDS011;17637;51.984;21.208;2022-09-03T20:52:22;11.65;;;6.68;;
30948;SDS011;17637;51.984;21.208;2022-09-03T21:00:51;12.50;;;7.35;;
30948;SDS011;17637;51.984;21.208;2022-09-03T21:09:02;12.90;;;7.22;;
30948;SDS011;17637;51.984;21.208;2022-09-03T21:11:43;13.40;;;7.28;;
30948;SDS011;17637;51.984;21.208;2022-09-03T21:23:43;9.45;;;5.80;;
30948;SDS011;17637;51.984;21.208;2022-09-03T21:26:02;12.98;;;7.00;;
30948;SDS011;17637;51.984;21.208;2022-09-03T21:28:40;13.57;;;7.13;;
30948;SDS011;17637;51.984;21.208;2022-09-03T21:33:46;14.20;;;7.22;;
30948;SDS011;17637;51.984;21.208;2022-09-03T21:39:05;12.27;;;6.10;;
30948;SDS011;17637;51.984;21.208;2022-09-03T21:44:20;9.70;;;5.15;;
30948;SDS011;17637;51.984;21.208;2022-09-03T21:46:52;10.73;;;5.43;;
30948;SDS011;17637;51.984;21.208;2022-09-03T21:49:47;12.10;;;6.30;;